CSS3 weather

Montreal / Les Cèdres Airport
Montréal, Quebec, Canada

Public forecast

Using degrees Celsius for public forecast. Weather courtesy of forecast.io.

Closest aviation weather report (METAR) to Montreal / Les Cèdres Airport

Closest report is Montreal / Pierre Elliott Trudeau International Airport, 16.0 nm (29.6 km) ENE. Retrieved 2020/02/23 23:00 UTC (46 minutes ago):

CYUL 232300Z 21007KT 15SM FEW200 BKN240 05/M03 A2995 RMK CI2CI4 SLP145

Closest aviation forecast (TAF) to Montreal / Les Cèdres Airport

Closest forecast is Montreal / Pierre Elliott Trudeau International Airport, 16.0 nm (29.6 km) ENE. Retrieved 2020/02/23 21:42 UTC (2 hours ago):

TAF CYUL 232039Z 2321/2418 22012KT P6SM BKN240 BECMG 2323/2401 22006KT BKN160 FM240600 VRB03KT P6SM SCT050 FM241500 26010G20KT P6SM BKN030 RMK NXT FCST BY 240000Z